createdAt,value
2019-04-29T00:01:55.682Z,24.67
2019-04-29T00:04:22.727Z,27.90
2019-04-29T00:06:49.641Z,26.93
2019-04-29T00:09:17.330Z,28.17
2019-04-29T00:11:44.590Z,24.00
2019-04-29T00:14:11.739Z,23.60
2019-04-29T00:16:44.726Z,20.60
2019-04-29T00:19:36.963Z,27.20
2019-04-29T00:22:03.790Z,23.20
2019-04-29T00:24:30.859Z,25.07
2019-04-29T00:26:58.419Z,28.63
2019-04-29T00:29:25.771Z,27.20
2019-04-29T00:31:53.227Z,22.10
2019-04-29T00:34:20.579Z,24.60
2019-04-29T00:36:55.415Z,24.07
2019-04-29T00:39:41.196Z,27.03
2019-04-29T00:42:33.695Z,25.17
2019-04-29T00:45:01.095Z,33.60
2019-04-29T00:47:28.267Z,38.83
2019-04-29T00:49:55.903Z,26.97
2019-04-29T00:52:23.287Z,33.50
2019-04-29T00:54:56.038Z,29.67
2019-04-29T00:57:22.935Z,24.33
2019-04-29T00:59:50.449Z,23.40
2019-04-29T01:02:19.334Z,34.27
2019-04-29T01:04:47.406Z,28.63
2019-04-29T01:07:14.351Z,26.20
2019-04-29T01:09:41.399Z,24.30
2019-04-29T01:12:09.467Z,31.53
2019-04-29T01:14:37.127Z,30.23
2019-04-29T01:17:04.075Z,29.83
2019-04-29T01:19:31.304Z,31.17
2019-04-29T01:21:58.579Z,32.20
2019-04-29T01:24:25.523Z,29.30
2019-04-29T01:27:18.069Z,34.57
2019-04-29T01:29:44.969Z,31.00
2019-04-29T01:32:13.104Z,33.83
2019-04-29T01:34:47.136Z,36.73
2019-04-29T01:37:14.651Z,34.10
2019-04-29T01:39:50.137Z,36.60
2019-04-29T01:42:21.339Z,41.20
2019-04-29T01:44:48.283Z,35.80
2019-04-29T01:47:15.232Z,39.37
2019-04-29T01:49:42.175Z,37.60
2019-04-29T01:52:09.117Z,37.50
2019-04-29T01:54:36.470Z,45.13
2019-04-29T01:57:03.420Z,41.43
2019-04-29T01:59:30.670Z,43.00
2019-04-29T02:01:57.616Z,42.47
2019-04-29T02:04:24.248Z,33.83
2019-04-29T02:06:51.506Z,38.63
2019-04-29T02:09:32.325Z,38.33
2019-04-29T02:11:59.204Z,49.87
2019-04-29T02:14:26.283Z,43.27
2019-04-29T02:16:53.342Z,41.40
2019-04-29T02:19:19.980Z,44.50
2019-04-29T02:22:06.454Z,42.63
2019-04-29T02:24:34.687Z,44.80
2019-04-29T02:27:01.321Z,46.40
2019-04-29T02:29:28.258Z,53.43
2019-04-29T02:31:54.871Z,38.77
2019-04-29T02:34:21.495Z,42.90
2019-04-29T02:36:48.432Z,41.60
2019-04-29T02:39:39.055Z,47.53
2019-04-29T02:42:28.204Z,50.03
2019-04-29T02:44:57.783Z,47.40
2019-04-29T02:47:25.060Z,44.97
2019-04-29T02:49:53.285Z,45.53
2019-04-29T02:52:20.352Z,43.30
2019-04-29T02:54:47.631Z,50.13
2019-04-29T02:57:30.137Z,48.73
2019-04-29T03:00:03.149Z,56.70
2019-04-29T03:02:41.088Z,44.57
2019-04-29T03:05:11.256Z,50.20
2019-04-29T03:07:38.613Z,48.97
2019-04-29T03:10:05.855Z,46.20
2019-04-29T03:12:33.291Z,49.40
2019-04-29T03:15:00.365Z,40.73
2019-04-29T03:17:28.028Z,46.47
2019-04-29T03:20:29.611Z,53.90
2019-04-29T03:23:10.438Z,41.23
2019-04-29T03:25:37.569Z,46.20
2019-04-29T03:28:04.673Z,51.43
2019-04-29T03:30:31.691Z,38.03
2019-04-29T03:32:58.460Z,45.63
2019-04-29T03:35:25.996Z,43.13
2019-04-29T03:37:53.249Z,45.53
2019-04-29T03:40:20.549Z,43.97
2019-04-29T03:42:49.591Z,49.30
2019-04-29T03:45:16.953Z,44.93
2019-04-29T03:47:44.507Z,44.10
2019-04-29T03:50:11.583Z,52.63
2019-04-29T03:52:38.208Z,42.20
2019-04-29T03:55:05.250Z,39.83
2019-04-29T03:57:35.663Z,42.70
2019-04-29T04:00:03.742Z,39.20
2019-04-29T04:02:48.491Z,38.23
2019-04-29T04:05:25.484Z,49.00
2019-04-29T04:07:59.464Z,41.77
2019-04-29T04:10:27.148Z,43.70
2019-04-29T04:12:54.096Z,49.30
2019-04-29T04:15:21.092Z,41.97
2019-04-29T04:18:08.491Z,48.50
2019-04-29T04:20:35.413Z,45.27
2019-04-29T04:23:02.138Z,44.37
2019-04-29T04:25:29.813Z,41.13
2019-04-29T04:27:56.761Z,45.73
2019-04-29T04:30:24.007Z,41.67
2019-04-29T04:32:51.615Z,40.10
2019-04-29T04:35:18.480Z,45.67
2019-04-29T04:37:45.147Z,35.40
2019-04-29T04:40:15.064Z,37.20
2019-04-29T04:42:42.421Z,37.27
2019-04-29T04:45:12.135Z,40.03
2019-04-29T04:47:39.626Z,31.93
2019-04-29T04:50:06.844Z,40.10
2019-04-29T04:52:33.584Z,34.67
2019-04-29T04:55:02.570Z,38.27
2019-04-29T04:57:32.279Z,41.97
2019-04-29T04:59:59.531Z,35.80
2019-04-29T05:02:27.115Z,34.03
2019-04-29T05:04:54.339Z,46.93
2019-04-29T05:07:22.411Z,33.40
2019-04-29T05:09:50.279Z,36.23
2019-04-29T05:12:17.526Z,35.13
2019-04-29T05:14:44.904Z,34.90
2019-04-29T05:17:13.368Z,35.20
2019-04-29T05:19:40.620Z,29.37
2019-04-29T05:22:07.351Z,30.93
2019-04-29T05:24:34.024Z,32.20
2019-04-29T05:27:00.917Z,40.60
2019-04-29T05:29:28.823Z,40.07
2019-04-29T05:31:55.758Z,33.93
2019-04-29T05:34:25.050Z,39.03
2019-04-29T05:37:17.515Z,33.07
2019-04-29T05:39:45.114Z,44.80
2019-04-29T05:42:16.087Z,32.83
2019-04-29T05:45:01.287Z,35.93
2019-04-29T05:47:52.365Z,38.50
2019-04-29T05:50:52.166Z,32.90
2019-04-29T05:53:39.803Z,37.17
2019-04-29T05:56:07.180Z,46.57
2019-04-29T05:58:37.778Z,38.80
2019-04-29T06:01:14.132Z,33.43
2019-04-29T06:03:44.179Z,40.23
2019-04-29T06:06:12.320Z,46.50
2019-04-29T06:08:39.501Z,43.10
2019-04-29T06:11:07.995Z,43.37
2019-04-29T06:13:35.455Z,37.27
2019-04-29T06:16:02.114Z,38.07
2019-04-29T06:18:29.082Z,39.47
2019-04-29T06:21:08.411Z,41.97
2019-04-29T06:23:26.405Z,37.37
2019-04-29T06:25:53.763Z,39.90
2019-04-29T06:28:21.621Z,39.57
2019-04-29T06:30:51.980Z,40.40
2019-04-29T06:33:19.034Z,33.90
2019-04-29T06:35:47.436Z,34.03
2019-04-29T06:38:14.254Z,34.70
2019-04-29T06:40:40.878Z,32.63
2019-04-29T06:43:07.863Z,33.90
2019-04-29T06:45:34.514Z,34.83
2019-04-29T06:48:03.337Z,34.63
2019-04-29T06:50:31.479Z,38.60
2019-04-29T06:52:58.875Z,43.33
2019-04-29T06:55:25.809Z,39.47
2019-04-29T06:57:54.691Z,36.60
2019-04-29T07:00:23.804Z,30.07
2019-04-29T07:02:51.099Z,35.57
2019-04-29T07:05:17.984Z,38.07
2019-04-29T07:07:44.972Z,38.60
2019-04-29T07:10:11.623Z,32.13
2019-04-29T07:12:38.368Z,37.90
2019-04-29T07:15:07.667Z,39.03
2019-04-29T07:17:36.470Z,34.37
2019-04-29T07:20:03.833Z,34.83
2019-04-29T07:22:31.753Z,29.83
2019-04-29T07:24:58.433Z,29.80
2019-04-29T07:27:25.064Z,29.30
2019-04-29T07:29:52.059Z,30.23
2019-04-29T07:32:18.679Z,43.37
2019-04-29T07:34:45.310Z,38.57
2019-04-29T07:37:12.246Z,37.20
2019-04-29T07:39:39.353Z,30.90
2019-04-29T07:42:06.351Z,37.77
2019-04-29T07:44:44.219Z,41.40
2019-04-29T07:47:09.524Z,35.33
2019-04-29T07:49:36.539Z,37.93
2019-04-29T07:52:03.456Z,37.53
2019-04-29T07:54:31.528Z,36.80
2019-04-29T07:56:59.187Z,36.17
2019-04-29T07:59:26.547Z,42.90
2019-04-29T08:01:55.652Z,42.87
2019-04-29T08:04:22.552Z,40.00
2019-04-29T08:06:49.571Z,44.53
2019-04-29T08:09:16.404Z,35.17
2019-04-29T08:11:43.150Z,37.40
2019-04-29T08:14:10.391Z,36.10
2019-04-29T08:16:37.335Z,45.27
2019-04-29T08:19:05.656Z,42.10
2019-04-29T08:21:33.233Z,35.00
2019-04-29T08:24:00.181Z,48.70
2019-04-29T08:26:27.556Z,46.23
2019-04-29T08:29:00.318Z,41.20
2019-04-29T08:31:23.683Z,29.00
2019-04-29T08:33:50.617Z,39.70
2019-04-29T08:36:18.304Z,32.97
2019-04-29T08:38:45.639Z,29.67
2019-04-29T08:41:13.616Z,30.70
2019-04-29T08:44:15.381Z,35.00
2019-04-29T08:46:32.748Z,31.80
2019-04-29T08:49:01.239Z,33.77
2019-04-29T08:51:28.448Z,32.63
2019-04-29T08:53:55.451Z,34.33
2019-04-29T08:56:22.411Z,37.00
2019-04-29T08:58:51.070Z,36.73
2019-04-29T09:01:18.076Z,33.67
2019-04-29T09:03:46.122Z,33.50
2019-04-29T09:06:13.091Z,37.40
2019-04-29T09:08:54.110Z,35.63
2019-04-29T09:11:12.969Z,33.30
2019-04-29T09:13:37.791Z,40.10
2019-04-29T09:16:04.408Z,33.60
2019-04-29T09:18:31.682Z,40.80
2019-04-29T09:20:58.628Z,40.27
2019-04-29T09:23:28.031Z,36.90
2019-04-29T09:26:13.325Z,39.53
2019-04-29T09:28:41.240Z,37.30
2019-04-29T09:31:07.871Z,36.90
2019-04-29T09:33:34.612Z,37.03
2019-04-29T09:36:02.309Z,41.60
2019-04-29T09:38:32.548Z,39.10
2019-04-29T09:41:04.107Z,43.47
2019-04-29T09:43:53.351Z,34.40
2019-04-29T09:46:24.290Z,39.23
2019-04-29T09:48:51.843Z,39.40
2019-04-29T09:51:22.911Z,42.43
2019-04-29T09:53:48.018Z,39.63
2019-04-29T09:56:14.639Z,43.23
2019-04-29T09:58:41.262Z,43.10
2019-04-29T10:01:18.690Z,44.10
2019-04-29T10:04:09.729Z,50.90
2019-04-29T10:06:50.638Z,46.23
2019-04-29T10:09:17.687Z,50.00
2019-04-29T10:11:44.628Z,47.97
2019-04-29T10:14:13.007Z,50.73
2019-04-29T10:16:52.471Z,47.67
2019-04-29T10:19:28.164Z,48.93
2019-04-29T10:21:55.150Z,49.30
2019-04-29T10:24:22.700Z,48.47
2019-04-29T10:26:49.419Z,55.27
2019-04-29T10:29:20.329Z,53.30
2019-04-29T10:31:47.207Z,47.10
2019-04-29T10:34:14.311Z,51.00
2019-04-29T10:36:41.319Z,44.43
2019-04-29T10:39:29.100Z,50.77
2019-04-29T10:41:56.808Z,48.10
2019-04-29T10:44:37.671Z,47.40
2019-04-29T10:47:28.485Z,45.77
2019-04-29T10:49:59.628Z,46.37
2019-04-29T10:52:26.598Z,44.70
2019-04-29T10:54:55.504Z,48.50
2019-04-29T10:57:23.608Z,43.93
2019-04-29T10:59:53.587Z,46.17
2019-04-29T11:02:40.018Z,51.03
2019-04-29T11:05:28.524Z,51.60
2019-04-29T11:08:11.177Z,44.83
2019-04-29T11:10:38.199Z,51.10
2019-04-29T11:13:05.043Z,42.40
2019-04-29T11:15:36.919Z,39.37
2019-04-29T11:18:04.102Z,45.00
2019-04-29T11:20:32.435Z,40.90
2019-04-29T11:23:09.116Z,46.33
2019-04-29T11:25:55.015Z,44.60
2019-04-29T11:28:21.756Z,47.93
2019-04-29T11:30:49.703Z,42.07
2019-04-29T11:33:22.376Z,44.60
2019-04-29T11:36:15.652Z,50.10
2019-04-29T11:38:44.145Z,43.00
2019-04-29T11:41:12.243Z,36.17
2019-04-29T11:43:39.419Z,43.90
2019-04-29T11:46:09.981Z,40.17
2019-04-29T11:48:34.595Z,38.57
2019-04-29T11:51:19.395Z,46.47
2019-04-29T11:53:46.003Z,35.50
2019-04-29T11:56:13.722Z,31.80
2019-04-29T11:59:08.458Z,30.47
2019-04-29T12:02:13.297Z,34.10
2019-04-29T12:04:46.415Z,29.37
2019-04-29T12:07:13.664Z,36.20
2019-04-29T12:09:40.915Z,33.60
2019-04-29T12:12:12.639Z,27.93
2019-04-29T12:14:43.421Z,30.67
2019-04-29T12:17:18.747Z,31.67
2019-04-29T12:19:47.140Z,22.47
2019-04-29T12:22:26.858Z,27.10
2019-04-29T12:24:43.475Z,22.23
2019-04-29T12:27:14.860Z,21.57
2019-04-29T12:29:41.663Z,23.47
2019-04-29T12:32:20.776Z,25.00
2019-04-29T12:34:59.059Z,23.50
2019-04-29T12:38:00.758Z,23.83
2019-04-29T12:40:57.807Z,19.10
2019-04-29T12:43:54.095Z,19.40
2019-04-29T12:46:27.751Z,19.37
2019-04-29T12:48:54.377Z,21.07
2019-04-29T12:51:21.349Z,18.50
2019-04-29T12:53:49.603Z,19.80
2019-04-29T12:56:18.924Z,17.63
2019-04-29T12:58:50.430Z,21.67
2019-04-29T13:01:50.359Z,19.20
2019-04-29T13:04:05.014Z,14.73
2019-04-29T13:06:57.988Z,21.50
2019-04-29T13:09:34.825Z,17.23
2019-04-29T13:12:17.978Z,16.33
2019-04-29T13:14:33.129Z,18.70
2019-04-29T13:17:14.448Z,17.80
2019-04-29T13:19:45.854Z,19.70
2019-04-29T13:22:15.625Z,20.50
2019-04-29T13:24:42.713Z,16.27
2019-04-29T13:27:16.211Z,17.00
2019-04-29T13:29:39.267Z,20.47
2019-04-29T13:32:06.672Z,25.60
2019-04-29T13:34:39.366Z,21.50
2019-04-29T13:37:07.741Z,17.80
2019-04-29T13:39:39.844Z,17.57
2019-04-29T13:42:09.281Z,16.73
2019-04-29T13:44:32.893Z,14.97
2019-04-29T13:47:14.485Z,15.40
2019-04-29T13:49:49.414Z,23.73
2019-04-29T13:52:16.821Z,16.53
2019-04-29T13:54:44.301Z,14.40
2019-04-29T13:57:15.810Z,14.60
2019-04-29T13:59:50.627Z,16.93
2019-04-29T14:02:32.392Z,18.63
2019-04-29T14:05:02.222Z,13.53
2019-04-29T14:07:30.287Z,15.63
2019-04-29T14:09:57.623Z,14.17
2019-04-29T14:12:47.751Z,21.50
2019-04-29T14:14:53.901Z,18.90
2019-04-29T14:17:26.533Z,16.30
2019-04-29T14:19:51.524Z,16.00
2019-04-29T14:22:22.394Z,20.73
2019-04-29T14:24:47.297Z,18.87
2019-04-29T14:27:24.719Z,14.80
2019-04-29T14:29:44.207Z,15.37
2019-04-29T14:32:11.463Z,15.97
2019-04-29T14:34:43.847Z,15.97
2019-04-29T14:37:21.459Z,17.53
2019-04-29T14:39:39.284Z,15.93
2019-04-29T14:42:29.683Z,16.07
2019-04-29T14:45:02.347Z,15.47
2019-04-29T14:47:49.047Z,18.97
2019-04-29T14:50:20.511Z,16.30
2019-04-29T14:52:49.380Z,18.30
2019-04-29T14:55:20.213Z,16.93
2019-04-29T14:57:44.323Z,20.53
2019-04-29T15:00:21.510Z,16.37
2019-04-29T15:02:48.280Z,15.63
2019-04-29T15:05:15.482Z,16.27
2019-04-29T15:07:42.306Z,17.60
2019-04-29T15:10:09.496Z,17.57
2019-04-29T15:13:06.701Z,16.73
2019-04-29T15:15:37.039Z,15.27
2019-04-29T15:18:16.043Z,15.37
2019-04-29T15:20:56.797Z,16.67
2019-04-29T15:23:28.865Z,16.73
2019-04-29T15:25:56.431Z,19.23
2019-04-29T15:28:23.830Z,17.30
2019-04-29T15:30:50.571Z,15.57
2019-04-29T15:33:17.199Z,16.03
2019-04-29T15:35:43.947Z,16.17
2019-04-29T15:38:10.985Z,15.60
2019-04-29T15:40:43.169Z,15.83
2019-04-29T15:43:06.602Z,16.13
2019-04-29T15:45:34.259Z,13.93
2019-04-29T15:48:01.367Z,15.70
2019-04-29T15:50:32.597Z,15.00
2019-04-29T15:53:02.525Z,14.83
2019-04-29T15:55:27.799Z,14.97
2019-04-29T15:57:55.164Z,13.87
2019-04-29T16:00:23.155Z,16.20
2019-04-29T16:02:51.974Z,15.83
2019-04-29T16:05:56.039Z,13.70
2019-04-29T16:08:30.128Z,18.87
2019-04-29T16:11:33.341Z,18.77
2019-04-29T16:14:09.323Z,16.30
2019-04-29T16:16:29.777Z,15.83
2019-04-29T16:19:07.131Z,15.83
2019-04-29T16:21:25.503Z,15.37
2019-04-29T16:23:57.516Z,16.37
2019-04-29T16:26:24.865Z,16.30
2019-04-29T16:28:50.247Z,15.53
2019-04-29T16:31:18.408Z,12.87
2019-04-29T16:33:47.455Z,16.27
2019-04-29T16:36:14.065Z,17.77
2019-04-29T16:38:46.288Z,14.83
2019-04-29T16:41:22.270Z,13.23
2019-04-29T16:43:49.435Z,16.43
2019-04-29T16:46:35.392Z,17.00
2019-04-29T16:48:54.571Z,17.17
2019-04-29T16:51:21.232Z,13.87
2019-04-29T16:53:48.252Z,13.47
2019-04-29T16:58:44.392Z,15.90
2019-04-29T17:01:13.179Z,14.10
2019-04-29T17:03:39.947Z,14.67
2019-04-29T17:06:06.643Z,16.43
2019-04-29T17:09:03.029Z,16.00
2019-04-29T17:11:25.825Z,13.23
2019-04-29T17:13:53.652Z,15.20
2019-04-29T17:16:22.484Z,13.47
2019-04-29T17:18:49.328Z,19.83
2019-04-29T17:21:16.516Z,18.13
2019-04-29T17:23:43.188Z,18.53
2019-04-29T17:26:11.619Z,18.07
2019-04-29T17:28:58.787Z,14.23
2019-04-29T17:31:41.931Z,17.30
2019-04-29T17:34:54.341Z,15.00
2019-04-29T17:35:15.989Z,14.47
2019-04-29T17:36:49.629Z,15.80
2019-04-29T17:39:17.708Z,13.00
2019-04-29T17:41:45.647Z,16.70
2019-04-29T17:44:29.151Z,15.93
2019-04-29T17:47:14.341Z,21.20
2019-04-29T17:50:06.530Z,12.73
2019-04-29T17:52:31.402Z,14.00
2019-04-29T17:55:07.878Z,9.63
2019-04-29T17:57:39.667Z,7.67
2019-04-29T18:00:41.477Z,15.50
2019-04-29T18:03:20.304Z,11.00
2019-04-29T18:06:01.839Z,10.90
2019-04-29T18:08:36.360Z,9.20
2019-04-29T18:11:07.825Z,9.43
2019-04-29T18:13:32.570Z,8.73
2019-04-29T18:16:04.633Z,9.53
2019-04-29T18:18:46.428Z,11.60
2019-04-29T18:21:26.072Z,7.63
2019-04-29T18:24:09.572Z,9.30
2019-04-29T18:26:52.904Z,9.50
2019-04-29T18:29:19.799Z,9.47
2019-04-29T18:31:46.706Z,8.43
2019-04-29T18:34:15.313Z,12.63
2019-04-29T18:36:46.280Z,6.80
2019-04-29T18:39:20.193Z,8.23
2019-04-29T18:41:47.139Z,10.17
2019-04-29T18:44:19.356Z,7.13
2019-04-29T18:46:45.957Z,8.70
2019-04-29T18:49:11.243Z,7.37
2019-04-29T18:51:37.880Z,7.07
2019-04-29T18:54:06.053Z,6.30
2019-04-29T18:56:36.329Z,8.90
2019-04-29T18:59:01.946Z,8.60
2019-04-29T19:01:30.364Z,11.67
2019-04-29T19:04:13.706Z,8.20
2019-04-29T19:06:40.547Z,7.93
2019-04-29T19:09:18.004Z,10.17
2019-04-29T19:11:39.663Z,8.00
2019-04-29T19:14:07.521Z,7.73
2019-04-29T19:16:35.899Z,8.43
2019-04-29T19:19:02.921Z,13.30
2019-04-29T19:21:31.473Z,8.50
2019-04-29T19:24:00.756Z,12.00
2019-04-29T19:26:30.127Z,7.07
2019-04-29T19:29:01.290Z,9.60
2019-04-29T19:31:28.519Z,5.90
2019-04-29T19:33:57.379Z,6.20
2019-04-29T19:36:24.816Z,8.10
2019-04-29T19:38:52.019Z,9.77
2019-04-29T19:41:20.017Z,6.07
2019-04-29T19:43:48.367Z,6.77
2019-04-29T19:46:24.356Z,6.83
2019-04-29T19:48:46.043Z,7.27
2019-04-29T19:51:16.034Z,5.40
2019-04-29T19:53:43.469Z,6.80
2019-04-29T19:56:12.539Z,10.93
2019-04-29T19:58:41.286Z,8.97
2019-04-29T20:01:13.796Z,9.30
2019-04-29T20:03:50.235Z,11.30
2019-04-29T20:06:25.146Z,5.87
2019-04-29T20:08:53.953Z,8.13
2019-04-29T20:11:18.799Z,10.23
2019-04-29T20:14:00.882Z,10.10
2019-04-29T20:16:43.340Z,11.23
2019-04-29T20:19:21.409Z,10.40
2019-04-29T20:21:48.994Z,9.17
2019-04-29T20:24:17.906Z,8.23
2019-04-29T20:26:46.865Z,9.57
2019-04-29T20:29:15.915Z,7.10
2019-04-29T20:31:48.660Z,11.30
2019-04-29T20:34:11.672Z,9.37
2019-04-29T20:36:42.850Z,8.07
2019-04-29T20:39:15.246Z,8.20
2019-04-29T20:41:41.349Z,9.73
2019-04-29T20:44:09.277Z,15.20
2019-04-29T20:46:45.426Z,15.03
2019-04-29T20:49:05.756Z,11.27
2019-04-29T20:51:48.753Z,11.33
2019-04-29T20:54:15.784Z,10.20
2019-04-29T20:56:39.147Z,10.10
2019-04-29T20:59:09.338Z,11.27
2019-04-29T21:01:43.332Z,12.67
2019-04-29T21:04:06.107Z,11.40
2019-04-29T21:06:39.201Z,9.13
2019-04-29T21:09:02.105Z,11.73
2019-04-29T21:11:47.061Z,10.33
2019-04-29T21:14:20.091Z,14.13
2019-04-29T21:16:48.476Z,11.43
2019-04-29T21:19:15.536Z,13.90
2019-04-29T21:21:45.469Z,8.23
2019-04-29T21:24:13.861Z,13.73
2019-04-29T21:26:44.651Z,15.70
2019-04-29T21:29:10.754Z,10.13
2019-04-29T21:31:38.495Z,14.73
2019-04-29T21:34:05.691Z,10.97
2019-04-29T21:36:45.357Z,13.53
2019-04-29T21:39:25.052Z,11.43
2019-04-29T21:42:03.492Z,8.07
2019-04-29T21:44:30.502Z,10.50
2019-04-29T21:46:59.683Z,9.10
2019-04-29T21:49:26.463Z,10.77
2019-04-29T21:51:53.082Z,10.73
2019-04-29T21:54:19.729Z,13.63
2019-04-29T21:56:48.179Z,12.13
2019-04-29T21:59:15.722Z,13.77
2019-04-29T22:01:44.842Z,10.03
2019-04-29T22:04:12.548Z,10.93
2019-04-29T22:06:39.816Z,12.70
2019-04-29T22:09:08.050Z,10.37
2019-04-29T22:11:43.050Z,9.53
2019-04-29T22:14:05.572Z,12.60
2019-04-29T22:16:35.617Z,12.60
2019-04-29T22:19:02.739Z,13.30
2019-04-29T22:21:29.763Z,11.60
2019-04-29T22:23:56.716Z,10.47
2019-04-29T22:26:26.728Z,13.67
2019-04-29T22:28:53.498Z,11.70
2019-04-29T22:31:26.970Z,15.63
2019-04-29T22:33:51.860Z,12.67
2019-04-29T22:36:19.835Z,16.67
2019-04-29T22:38:52.036Z,14.70
2019-04-29T22:41:26.477Z,15.07
2019-04-29T22:43:58.180Z,18.20
2019-04-29T22:46:27.842Z,13.53
2019-04-29T22:48:55.785Z,14.23
2019-04-29T22:51:23.319Z,11.33
2019-04-29T22:53:50.255Z,20.60
2019-04-29T22:56:17.199Z,15.43
2019-04-29T22:58:45.582Z,15.33
2019-04-29T23:01:15.583Z,13.83
2019-04-29T23:03:43.001Z,11.53
2019-04-29T23:06:09.837Z,14.30
2019-04-29T23:08:38.177Z,25.33
2019-04-29T23:11:05.547Z,15.03
2019-04-29T23:13:32.624Z,18.20
2019-04-29T23:16:02.146Z,21.00
2019-04-29T23:18:40.972Z,14.70
2019-04-29T23:21:21.158Z,21.50
2019-04-29T23:23:50.359Z,15.80
2019-04-29T23:26:18.130Z,14.17
2019-04-29T23:28:45.731Z,19.40
2019-04-29T23:31:12.491Z,14.90
2019-04-29T23:33:39.771Z,18.20
2019-04-29T23:36:09.662Z,13.33
2019-04-29T23:38:38.670Z,20.90
2019-04-29T23:41:07.103Z,17.30
2019-04-29T23:43:35.558Z,17.35
2019-04-29T23:46:04.839Z,19.40
2019-04-29T23:48:38.911Z,22.50
2019-04-29T23:51:01.283Z,15.73
2019-04-29T23:53:28.536Z,17.60
2019-04-29T23:55:55.667Z,16.33
2019-04-29T23:58:49.369Z,15.23
